createdAt,value
2022-10-24T00:01:39.000Z,100.00
2022-10-24T00:06:41.753Z,100.00
2022-10-24T00:11:43.542Z,100.00
2022-10-24T00:16:45.207Z,100.00
2022-10-24T00:21:47.258Z,100.00
2022-10-24T00:26:48.916Z,100.00
2022-10-24T00:31:50.647Z,100.00
2022-10-24T00:36:52.426Z,100.00
2022-10-24T00:41:55.296Z,100.00
2022-10-24T00:47:04.660Z,100.00
2022-10-24T00:52:09.715Z,100.00
2022-10-24T00:57:14.107Z,100.00
2022-10-24T01:02:15.859Z,100.00
2022-10-24T01:07:52.689Z,100.00
2022-10-24T01:13:31.890Z,100.00
2022-10-24T01:18:48.277Z,100.00
2022-10-24T01:24:08.507Z,100.00
2022-10-24T01:29:19.986Z,100.00
2022-10-24T01:34:45.605Z,100.00
2022-10-24T01:39:52.555Z,100.00
2022-10-24T01:44:57.519Z,100.00
2022-10-24T01:50:04.009Z,100.00
2022-10-24T01:55:07.078Z,100.00
2022-10-24T02:00:15.935Z,100.00
2022-10-24T02:05:34.600Z,100.00
2022-10-24T02:10:42.740Z,100.00
2022-10-24T02:15:50.410Z,100.00
2022-10-24T02:20:52.033Z,100.00
2022-10-24T02:26:00.414Z,100.00
2022-10-24T02:31:16.608Z,100.00
2022-10-24T02:36:25.145Z,100.00
2022-10-24T02:41:32.201Z,100.00
2022-10-24T02:46:35.349Z,100.00
2022-10-24T02:51:41.196Z,100.00
2022-10-24T02:56:55.034Z,100.00
2022-10-24T03:01:57.156Z,100.00
2022-10-24T03:06:58.897Z,100.00
2022-10-24T03:12:00.892Z,100.00
2022-10-24T03:17:02.598Z,100.00
2022-10-24T03:22:04.566Z,100.00
2022-10-24T03:27:06.384Z,100.00
2022-10-24T03:32:08.114Z,100.00
2022-10-24T03:37:09.926Z,100.00
2022-10-24T03:42:11.985Z,100.00
2022-10-24T03:47:13.803Z,100.00
2022-10-24T03:52:15.947Z,100.00
2022-10-24T03:57:17.644Z,100.00
2022-10-24T04:02:19.423Z,100.00
2022-10-24T04:07:21.090Z,100.00
2022-10-24T04:12:23.748Z,100.00
2022-10-24T04:17:25.442Z,100.00
2022-10-24T04:22:27.251Z,100.00
2022-10-24T04:27:28.948Z,100.00
2022-10-24T04:32:30.622Z,100.00
2022-10-24T04:37:32.532Z,100.00
2022-10-24T04:42:34.202Z,100.00
2022-10-24T04:47:36.054Z,100.00
2022-10-24T04:52:37.722Z,100.00
2022-10-24T04:57:39.473Z,100.00
2022-10-24T05:02:41.199Z,100.00
2022-10-24T05:07:44.464Z,100.00
2022-10-24T05:12:46.782Z,100.00
2022-10-24T05:17:48.818Z,100.00
2022-10-24T05:22:50.773Z,100.00
2022-10-24T05:27:52.456Z,100.00
2022-10-24T05:32:54.124Z,100.00
2022-10-24T05:37:55.792Z,100.00
2022-10-24T05:42:57.516Z,100.00
2022-10-24T05:47:59.403Z,100.00
2022-10-24T05:53:01.706Z,100.00
2022-10-24T05:58:03.530Z,100.00
2022-10-24T06:03:05.187Z,100.00
2022-10-24T06:08:06.900Z,100.00
2022-10-24T06:13:08.580Z,100.00
2022-10-24T06:18:10.461Z,100.00
2022-10-24T06:23:12.234Z,100.00
2022-10-24T06:28:15.083Z,100.00
2022-10-24T06:33:16.834Z,100.00
2022-10-24T06:38:18.620Z,97.56
2022-10-24T06:43:20.824Z,96.05
2022-10-24T06:48:22.481Z,96.29
2022-10-24T06:53:24.151Z,97.46
2022-10-24T06:58:25.862Z,94.89
2022-10-24T07:03:27.536Z,93.00
2022-10-24T07:08:29.204Z,94.20
2022-10-24T07:13:31.034Z,90.63
2022-10-24T07:18:32.756Z,89.87
2022-10-24T07:23:35.482Z,88.40
2022-10-24T07:28:39.070Z,87.78
2022-10-24T07:33:41.554Z,86.02
2022-10-24T07:38:43.294Z,85.71
2022-10-24T07:43:45.737Z,85.36
2022-10-24T07:48:50.521Z,84.74
2022-10-24T07:53:52.176Z,84.13
2022-10-24T07:58:55.122Z,82.97
2022-10-24T08:03:57.178Z,82.19
2022-10-24T08:08:59.154Z,81.25
2022-10-24T08:14:02.421Z,80.88
2022-10-24T08:19:04.175Z,81.47
2022-10-24T08:24:06.171Z,81.06
2022-10-24T08:29:11.585Z,80.39
2022-10-24T08:34:14.593Z,79.70
2022-10-24T08:39:16.843Z,80.09
2022-10-24T08:44:28.339Z,80.67
2022-10-24T08:49:49.425Z,81.35
2022-10-24T08:54:53.885Z,83.66
2022-10-24T09:00:00.145Z,81.47
2022-10-24T09:05:14.841Z,82.39
2022-10-24T09:10:26.744Z,81.75
2022-10-24T09:15:30.480Z,81.94
2022-10-24T09:20:33.711Z,78.26
2022-10-24T09:25:36.712Z,78.83
2022-10-24T09:30:38.477Z,76.77
2022-10-24T09:35:40.595Z,78.41
2022-10-24T09:40:48.588Z,79.60
2022-10-24T09:46:05.441Z,80.32
2022-10-24T09:51:08.263Z,79.44
2022-10-24T09:56:14.665Z,79.21
2022-10-24T10:01:16.542Z,76.48
2022-10-24T10:06:20.500Z,74.00
2022-10-24T10:11:30.709Z,73.50
2022-10-24T10:16:36.785Z,73.22
2022-10-24T10:22:02.048Z,73.86
2022-10-24T10:27:24.893Z,73.51
2022-10-24T10:32:34.841Z,74.13
2022-10-24T10:37:45.424Z,75.99
2022-10-24T10:43:00.292Z,76.28
2022-10-24T10:48:33.935Z,76.51
2022-10-24T10:53:44.525Z,75.51
2022-10-24T10:59:12.149Z,74.92
2022-10-24T11:04:22.682Z,73.62
2022-10-24T11:09:31.196Z,71.41
2022-10-24T11:15:02.682Z,69.12
2022-10-24T11:20:04.372Z,69.48
2022-10-24T11:25:20.363Z,69.33
2022-10-24T11:30:42.308Z,69.96
2022-10-24T11:36:01.414Z,67.81
2022-10-24T11:41:44.508Z,68.76
2022-10-24T11:46:56.024Z,64.26
2022-10-24T11:52:06.234Z,61.29
2022-10-24T11:57:15.893Z,61.86
2022-10-24T12:02:38.702Z,61.72
2022-10-24T12:07:58.778Z,60.50
2022-10-24T12:13:21.358Z,59.79
2022-10-24T12:18:31.851Z,60.56
2022-10-24T12:23:33.924Z,60.22
2022-10-24T12:28:38.385Z,59.19
2022-10-24T12:33:41.127Z,59.52
2022-10-24T12:38:43.798Z,59.45
2022-10-24T12:43:49.397Z,60.27
2022-10-24T12:48:57.104Z,59.97
2022-10-24T12:54:13.870Z,60.58
2022-10-24T12:59:54.629Z,60.42
2022-10-24T13:05:33.902Z,60.99
2022-10-24T13:10:47.433Z,62.47
2022-10-24T13:15:58.040Z,62.83
2022-10-24T13:21:21.363Z,64.29
2022-10-24T13:26:37.924Z,63.41
2022-10-24T13:31:41.126Z,64.85
2022-10-24T13:36:44.398Z,64.16
2022-10-24T13:41:50.842Z,64.68
2022-10-24T13:47:01.274Z,65.61
2022-10-24T13:52:26.099Z,66.39
2022-10-24T13:57:36.395Z,65.92
2022-10-24T14:02:41.620Z,66.01
2022-10-24T14:07:44.974Z,65.33
2022-10-24T14:12:48.857Z,63.85
2022-10-24T14:17:56.808Z,65.72
2022-10-24T14:22:58.810Z,67.02
2022-10-24T14:28:10.005Z,66.52
2022-10-24T14:33:14.921Z,66.60
2022-10-24T14:38:18.268Z,67.04
2022-10-24T14:43:28.404Z,66.12
2022-10-24T14:48:30.376Z,65.95
2022-10-24T14:53:32.349Z,64.62
2022-10-24T14:58:35.765Z,66.36
2022-10-24T15:03:52.041Z,65.22
2022-10-24T15:09:17.019Z,65.51
2022-10-24T15:14:47.755Z,66.10
2022-10-24T15:19:50.847Z,66.51
2022-10-24T15:24:55.074Z,66.19
2022-10-24T15:29:57.333Z,66.94
2022-10-24T15:34:59.046Z,66.72
2022-10-24T15:40:07.632Z,67.30
2022-10-24T15:45:16.924Z,67.19
2022-10-24T15:55:31.801Z,68.79
2022-10-24T16:00:33.521Z,69.50
2022-10-24T16:05:39.450Z,70.66
2022-10-24T16:10:42.765Z,70.99
2022-10-24T16:15:44.684Z,71.90
2022-10-24T16:20:47.432Z,73.09
2022-10-24T16:25:49.110Z,74.04
2022-10-24T16:30:50.845Z,74.20
2022-10-24T16:35:52.578Z,75.31
2022-10-24T16:40:54.359Z,76.19
2022-10-24T16:46:01.639Z,77.21
2022-10-24T16:51:03.368Z,78.98
2022-10-24T16:56:05.270Z,79.53
2022-10-24T17:01:13.573Z,79.43
2022-10-24T17:06:15.988Z,80.81
2022-10-24T17:11:39.892Z,81.93
2022-10-24T17:16:40.052Z,82.44
2022-10-24T17:21:42.110Z,82.04
2022-10-24T17:26:44.044Z,82.97
2022-10-24T17:31:45.836Z,83.73
2022-10-24T17:36:55.628Z,84.58
2022-10-24T17:41:57.468Z,84.52
2022-10-24T17:46:59.314Z,84.56
2022-10-24T17:52:00.982Z,84.73
2022-10-24T17:57:05.076Z,85.33
2022-10-24T18:02:07.224Z,85.88
2022-10-24T18:07:09.364Z,85.45
2022-10-24T18:12:11.038Z,86.14
2022-10-24T18:17:12.790Z,86.06
2022-10-24T18:22:14.450Z,85.78
2022-10-24T18:27:16.123Z,86.04
2022-10-24T18:32:19.955Z,85.97
2022-10-24T18:37:21.753Z,86.81
2022-10-24T18:42:29.262Z,87.24
2022-10-24T18:47:31.220Z,87.45
2022-10-24T18:52:41.379Z,86.82
2022-10-24T18:57:43.935Z,88.09
2022-10-24T19:03:07.076Z,88.44
2022-10-24T19:08:14.700Z,89.28
2022-10-24T19:13:16.500Z,89.39
2022-10-24T19:18:18.665Z,89.92
2022-10-24T19:23:20.454Z,89.72
2022-10-24T19:28:22.325Z,90.61
2022-10-24T19:33:27.922Z,90.20
2022-10-24T19:38:29.687Z,91.71
2022-10-24T19:43:32.183Z,91.89
2022-10-24T19:48:36.850Z,92.11
2022-10-24T19:53:40.918Z,91.35
2022-10-24T19:58:43.114Z,90.26
2022-10-24T20:03:46.625Z,90.54
2022-10-24T20:08:49.494Z,90.98
2022-10-24T20:13:51.144Z,90.35
2022-10-24T20:18:52.963Z,88.87
2022-10-24T20:23:54.627Z,89.40
2022-10-24T20:28:56.369Z,89.12
2022-10-24T20:34:06.904Z,89.71
2022-10-24T20:39:10.573Z,88.55
2022-10-24T20:44:12.330Z,88.78
2022-10-24T20:49:13.982Z,88.43
2022-10-24T20:54:15.643Z,89.30
2022-10-24T20:59:17.367Z,88.60
2022-10-24T21:04:20.959Z,88.48
2022-10-24T21:09:22.870Z,87.72
2022-10-24T21:14:24.526Z,88.47
2022-10-24T21:19:26.791Z,88.20
2022-10-24T21:24:28.461Z,89.16
2022-10-24T21:29:34.232Z,88.92
2022-10-24T21:34:36.177Z,89.17
2022-10-24T21:39:37.846Z,90.07
2022-10-24T21:44:39.528Z,90.49
2022-10-24T21:49:41.211Z,89.56
2022-10-24T21:54:42.874Z,89.67
2022-10-24T21:59:44.602Z,90.04
2022-10-24T22:04:47.120Z,89.69
2022-10-24T22:09:48.819Z,89.27
2022-10-24T22:14:50.471Z,89.32
2022-10-24T22:19:52.514Z,90.58
2022-10-24T22:24:54.181Z,90.14
2022-10-24T22:29:55.840Z,90.20
2022-10-24T22:34:57.833Z,91.02
2022-10-24T22:39:59.806Z,91.59
2022-10-24T22:45:01.758Z,91.22
2022-10-24T22:50:23.057Z,92.44
2022-10-24T22:55:45.595Z,92.82
2022-10-24T23:00:54.116Z,93.54
2022-10-24T23:06:22.792Z,92.93
2022-10-24T23:11:24.793Z,92.26
2022-10-24T23:16:40.056Z,91.87
2022-10-24T23:21:48.881Z,91.87
2022-10-24T23:27:12.290Z,91.90
2022-10-24T23:32:26.602Z,92.46
2022-10-24T23:37:35.557Z,92.63
2022-10-24T23:42:37.603Z,92.46
2022-10-24T23:48:02.435Z,92.92
2022-10-24T23:53:28.541Z,94.28
2022-10-24T23:58:30.265Z,94.97
